Main page
METAR-TAF:

Airports :

Gloucester, England

Gloucestershire Airport

latitude: 51-54N, longitude: 002-10W, elevation: 29 m

Current weather observation

The report was made 3 hours and 33 minutes ago, at 17:50 UTC
Wind 9 kt from the East
Temperature 16°C
Humidity 51%
Pressure 1020 hPa
Visibility 10 km or more
Few clouds at a height of 4000 ft

METAR: EGBJ 241750Z 08009KT 9999 FEW040 16/06 Q1020

Time: 22:23 (21:23 UTC)

Forecast

The report was made 7 hours and 21 minutes ago, at 14:02 UTC
Forecast valid from 24 at 15 UTC to 24 at 19 UTC
Wind 9 kt from the East/Northeast
Visibility 10 km or more
Few clouds at a height of 4500 ft

TAF: EGBJ 241402Z 2415/2419 06009KT 9999 FEW045

METAR-TAF

Weather observations and forecasts of more than 4000 airports (METAR and TAF reports).

The available stations are represented by yellow and red dots on the map.

Hover mouse over dot to see the name of the station.

Then click to see weather observations and forecasts.

To change the map : click on the green buttons with a black cross to zoom in, on the green button with a dash to zoom out, or on the green arrows for adjacent maps.


METAR-TAF: